Time;durP1;ratioP1;P1;durP2;ratioP2;P2;SDS_P1;SDS_P2;PMS_P1;PMS_P2;Temp;Humidity;BMP_temperature;BMP_pressure;BME280_temperature;BME280_humidity;BME280_pressure;Samples;Min_cycle;Max_cycle;Signal;HPM_P1;HPM_P2
2023/04/08 00:00:45;;;;;;;12.93;8.97;;;6.40;44.60;;;;;;5049762;28;20676;-63
2023/04/08 00:03:12;;;;;;;17.83;10.00;;;6.30;46.60;;;;;;5063223;28;20195;-63
2023/04/08 00:05:38;;;;;;;17.17;9.67;;;6.30;47.70;;;;;;5019090;28;20443;-63
2023/04/08 00:08:07;;;;;;;13.03;9.07;;;6.20;49.40;;;;;;5066494;28;22508;-63
2023/04/08 00:10:34;;;;;;;14.27;10.00;;;6.30;52.20;;;;;;5048576;28;20860;-63
2023/04/08 00:13:00;;;;;;;14.17;9.97;;;6.30;49.50;;;;;;5062083;28;20626;-63
2023/04/08 00:15:27;;;;;;;16.47;11.30;;;6.20;48.70;;;;;;5033293;28;20782;-63
2023/04/08 00:17:54;;;;;;;13.70;9.00;;;6.20;47.60;;;;;;5062326;28;20541;-63
2023/04/08 00:20:22;;;;;;;14.50;9.27;;;6.20;45.70;;;;;;5029668;28;20207;-63
2023/04/08 00:22:49;;;;;;;17.70;10.67;;;6.20;43.30;;;;;;5060820;28;20204;-63
2023/04/08 00:25:17;;;;;;;16.67;9.83;;;6.20;40.40;;;;;;5049420;28;20207;-63
2023/04/08 00:27:44;;;;;;;16.53;9.93;;;6.30;41.50;;;;;;5053053;28;20220;-63
2023/04/08 00:30:11;;;;;;;15.00;9.50;;;6.20;37.40;;;;;;5051882;28;20200;-63
2023/04/08 00:32:38;;;;;;;12.93;9.17;;;6.20;35.20;;;;;;5059268;28;20228;-63
2023/04/08 00:35:05;;;;;;;20.17;9.30;;;6.20;35.30;;;;;;5033152;28;20207;-63
2023/04/08 00:37:32;;;;;;;15.40;10.00;;;6.20;33.30;;;;;;5054759;28;20204;-63
2023/04/08 00:39:59;;;;;;;14.93;9.67;;;6.20;31.50;;;;;;5048704;28;20221;-63
2023/04/08 00:42:29;;;;;;;17.40;9.60;;;6.30;33.50;;;;;;5046665;28;20516;-63
2023/04/08 00:44:56;;;;;;;12.47;8.83;;;6.20;33.70;;;;;;5048596;28;20208;-63
2023/04/08 00:47:23;;;;;;;13.03;8.87;;;6.20;33.30;;;;;;5036892;28;20383;-63
2023/04/08 00:49:50;;;;;;;11.50;8.03;;;6.30;32.40;;;;;;5055362;28;20214;-63
2023/04/08 00:52:17;;;;;;;14.93;8.60;;;6.30;30.80;;;;;;5030134;28;20944;-63
2023/04/08 00:54:43;;;;;;;13.20;9.23;;;6.30;31.00;;;;;;5059351;28;20203;-63
2023/04/08 00:57:10;;;;;;;11.33;8.10;;;6.20;31.70;;;;;;5052643;28;20200;-63
2023/04/08 00:59:39;;;;;;;13.43;8.43;;;6.20;33.00;;;;;;5054538;28;20406;-63
2023/04/08 01:02:14;;;;;;;11.50;8.63;;;6.20;33.70;;;;;;5058778;28;20200;-63
2023/04/08 01:04:46;;;;;;;15.13;8.53;;;6.20;32.60;;;;;;5057852;28;20408;-63
2023/04/08 01:07:17;;;;;;;11.57;7.70;;;6.20;32.50;;;;;;5034188;28;20247;-63
2023/04/08 01:09:48;;;;;;;13.03;8.40;;;6.20;31.00;;;;;;5065585;28;20188;-63
2023/04/08 01:12:21;;;;;;;10.93;7.77;;;6.20;34.40;;;;;;5060404;28;20722;-63
2023/04/08 01:14:52;;;;;;;12.40;8.27;;;6.20;32.40;;;;;;5049948;28;20668;-63
2023/04/08 01:17:19;;;;;;;14.50;8.43;;;6.20;31.20;;;;;;5061278;28;20693;-63
2023/04/08 01:19:47;;;;;;;11.53;7.93;;;6.20;29.10;;;;;;5051959;28;20200;-63
2023/04/08 01:22:28;;;;;;;14.10;8.03;;;6.20;29.50;;;;;;5043629;28;20214;-63
2023/04/08 01:25:02;;;;;;;11.40;7.73;;;6.20;29.10;;;;;;5059340;28;20677;-63
2023/04/08 01:27:32;;;;;;;11.57;8.20;;;6.20;30.00;;;;;;5061302;28;20739;-63
2023/04/08 01:30:00;;;;;;;10.90;7.53;;;6.20;33.00;;;;;;5048194;28;20294;-63
2023/04/08 01:32:29;;;;;;;10.37;7.60;;;6.20;34.70;;;;;;5060596;28;20355;-63
2023/04/08 01:34:57;;;;;;;10.90;7.17;;;6.10;33.40;;;;;;5052586;28;20285;-63
2023/04/08 01:37:26;;;;;;;9.90;6.90;;;6.10;38.50;;;;;;5030238;28;20760;-63
2023/04/08 01:39:55;;;;;;;13.37;8.27;;;6.10;42.20;;;;;;5064233;28;20480;-63
2023/04/08 01:42:23;;;;;;;9.70;7.23;;;6.20;43.80;;;;;;5047005;28;20213;-63
2023/04/08 01:44:54;;;;;;;15.57;8.53;;;6.10;45.40;;;;;;5055703;28;20200;-63
2023/04/08 01:47:21;;;;;;;9.83;7.67;;;6.10;50.30;;;;;;5039204;28;20556;-63
2023/04/08 01:49:49;;;;;;;10.00;7.40;;;6.20;54.10;;;;;;5047073;28;20211;-63
2023/04/08 01:52:18;;;;;;;16.13;8.20;;;6.20;57.30;;;;;;5056412;28;20199;-63
2023/04/08 01:54:45;;;;;;;11.03;7.57;;;6.20;60.10;;;;;;5036232;28;20216;-63
2023/04/08 01:57:15;;;;;;;11.47;7.33;;;6.20;62.50;;;;;;5057188;28;20409;-63
2023/04/08 01:59:43;;;;;;;12.23;7.37;;;6.30;63.80;;;;;;5060567;28;20200;-63
2023/04/08 02:02:12;;;;;;;11.67;7.73;;;6.30;62.10;;;;;;5051477;28;20216;-63
2023/04/08 02:04:39;;;;;;;11.87;7.93;;;6.30;62.10;;;;;;5060412;28;20227;-63
2023/04/08 02:07:06;;;;;;;11.03;7.53;;;6.30;61.50;;;;;;5044674;28;20720;-63
2023/04/08 02:09:33;;;;;;;13.00;7.90;;;6.30;62.20;;;;;;5036386;28;20212;-63
2023/04/08 02:12:00;;;;;;;14.73;7.83;;;6.30;60.00;;;;;;5057258;28;20196;-63
2023/04/08 02:14:27;;;;;;;12.67;7.97;;;6.40;58.70;;;;;;5056285;28;20721;-63
2023/04/08 02:16:58;;;;;;;16.33;8.57;;;6.40;57.30;;;;;;5048097;28;20207;-62
2023/04/08 02:19:30;;;;;;;11.97;7.50;;;6.40;58.30;;;;;;5064330;28;20651;-63
2023/04/08 02:22:04;;;;;;;16.40;9.63;;;6.30;59.80;;;;;;5049724;28;20196;-63
2023/04/08 02:24:33;;;;;;;13.67;8.30;;;6.30;61.30;;;;;;5045587;28;20203;-63
2023/04/08 02:27:02;;;;;;;14.57;9.13;;;6.40;65.90;;;;;;5053851;28;20416;-63
2023/04/08 02:29:31;;;;;;;13.20;8.43;;;6.30;68.20;;;;;;5059423;28;20211;-63
2023/04/08 02:31:58;;;;;;;16.90;9.80;;;6.30;70.50;;;;;;5051363;28;20215;-63
2023/04/08 02:34:27;;;;;;;13.83;9.23;;;6.40;70.70;;;;;;5068186;28;20202;-63
2023/04/08 02:36:54;;;;;;;15.50;9.50;;;6.40;73.40;;;;;;5050602;28;20652;-63
2023/04/08 02:39:21;;;;;;;13.87;9.47;;;6.30;76.90;;;;;;5064637;28;20200;-63
2023/04/08 02:41:47;;;;;;;15.27;9.87;;;6.30;80.20;;;;;;5032343;28;20223;-63
2023/04/08 02:44:14;;;;;;;20.07;9.80;;;6.30;81.00;;;;;;5053521;28;20207;-63
2023/04/08 02:46:41;;;;;;;20.83;11.10;;;6.30;84.10;;;;;;5049562;28;20291;-63
2023/04/08 02:49:08;;;;;;;16.83;9.80;;;6.30;86.80;;;;;;5057956;28;20231;-63
2023/04/08 02:51:36;;;;;;;20.23;10.60;;;6.30;89.60;;;;;;5062284;28;20196;-63
2023/04/08 02:54:02;;;;;;;17.33;9.97;;;6.30;91.60;;;;;;5051191;28;20232;-63
2023/04/08 02:56:29;;;;;;;19.73;10.47;;;6.30;92.10;;;;;;5030278;28;20740;-63
2023/04/08 02:58:56;;;;;;;16.70;10.23;;;6.30;92.80;;;;;;5057436;28;20773;-63
2023/04/08 03:01:23;;;;;;;20.13;10.30;;;6.40;93.20;;;;;;5037141;28;21191;-63
2023/04/08 03:03:50;;;;;;;17.03;10.43;;;6.30;93.00;;;;;;5064820;28;20278;-63
2023/04/08 03:06:17;;;;;;;15.63;10.57;;;6.40;93.30;;;;;;5056290;28;22778;-63
2023/04/08 03:08:45;;;;;;;16.43;10.57;;;6.40;93.20;;;;;;5055444;28;20303;-64
2023/04/08 03:11:12;;;;;;;17.83;10.47;;;6.30;93.80;;;;;;5031668;28;20413;-63
2023/04/08 03:13:39;;;;;;;14.47;9.30;;;6.30;94.10;;;;;;5063082;28;20188;-63
2023/04/08 03:16:06;;;;;;;19.67;11.17;;;6.30;94.60;;;;;;5042187;28;20350;-63
2023/04/08 03:18:34;;;;;;;19.20;10.33;;;6.30;95.20;;;;;;5067190;28;20208;-63
2023/04/08 03:21:02;;;;;;;17.30;10.63;;;6.30;95.20;;;;;;5041983;28;20243;-64
2023/04/08 03:23:29;;;;;;;17.13;9.90;;;6.40;95.80;;;;;;5058085;28;20200;-63
2023/04/08 03:25:57;;;;;;;21.57;10.47;;;6.30;96.20;;;;;;5064923;28;20224;-63
2023/04/08 03:28:24;;;;;;;15.87;9.80;;;6.30;95.90;;;;;;5032599;28;20244;-63
2023/04/08 03:30:50;;;;;;;17.93;10.57;;;6.30;95.90;;;;;;5060712;28;20196;-63
2023/04/08 03:33:17;;;;;;;18.33;10.43;;;6.30;96.30;;;;;;5054327;28;20217;-63
2023/04/08 03:35:44;;;;;;;20.87;10.80;;;6.30;96.70;;;;;;5062155;28;20707;-63
2023/04/08 03:38:11;;;;;;;16.47;10.47;;;6.30;97.10;;;;;;5051927;28;20700;-63
2023/04/08 03:40:38;;;;;;;21.00;10.03;;;6.30;96.90;;;;;;5044803;28;20211;-63
2023/04/08 03:43:07;;;;;;;19.57;10.67;;;6.20;96.40;;;;;;5026221;28;20998;-63
2023/04/08 03:45:34;;;;;;;16.53;10.17;;;6.20;96.80;;;;;;5043686;28;20584;-63
2023/04/08 03:48:01;;;;;;;16.53;8.87;;;6.30;97.30;;;;;;5048873;28;20223;-63
2023/04/08 03:50:28;;;;;;;16.20;9.77;;;6.20;96.50;;;;;;5054253;28;20200;-63
2023/04/08 03:52:54;;;;;;;12.53;8.40;;;6.20;95.60;;;;;;5054811;28;20204;-63
2023/04/08 03:55:21;;;;;;;13.93;8.63;;;6.20;95.30;;;;;;5049817;28;20207;-63
2023/04/08 03:57:48;;;;;;;12.37;8.00;;;6.20;95.10;;;;;;5058090;28;20203;-64
2023/04/08 04:00:16;;;;;;;15.63;9.23;;;6.20;94.60;;;;;;5021913;28;20310;-63
2023/04/08 04:02:43;;;;;;;12.80;7.90;;;6.30;94.90;;;;;;5063757;28;20200;-63
2023/04/08 04:05:10;;;;;;;14.13;7.77;;;6.30;94.80;;;;;;5048321;28;20204;-63
2023/04/08 04:07:37;;;;;;;16.67;9.03;;;6.30;94.90;;;;;;5050598;28;20200;-63
2023/04/08 04:10:04;;;;;;;12.80;8.93;;;6.30;94.40;;;;;;5061283;28;20201;-63
2023/04/08 04:12:31;;;;;;;13.10;9.17;;;6.30;95.20;;;;;;5049013;28;20200;-63
2023/04/08 04:14:57;;;;;;;16.83;9.00;;;6.30;95.30;;;;;;5022700;28;20681;-63
2023/04/08 04:17:26;;;;;;;12.27;8.53;;;6.40;95.30;;;;;;5061576;28;20546;-63
2023/04/08 04:19:52;;;;;;;14.80;9.10;;;6.40;95.00;;;;;;5049937;28;20499;-63
2023/04/08 04:22:19;;;;;;;12.33;8.63;;;6.40;95.30;;;;;;5050112;28;20199;-63
2023/04/08 04:24:48;;;;;;;11.83;8.17;;;6.40;95.60;;;;;;5061857;28;20196;-63
2023/04/08 04:27:16;;;;;;;12.67;8.50;;;6.40;95.90;;;;;;5052384;28;20257;-63
2023/04/08 04:29:43;;;;;;;16.00;9.50;;;6.40;95.30;;;;;;5062766;28;20520;-63
2023/04/08 04:32:10;;;;;;;15.10;9.10;;;6.40;95.10;;;;;;5033119;28;21443;-63
2023/04/08 04:34:38;;;;;;;14.27;8.40;;;6.40;95.30;;;;;;5049295;28;20520;-63
2023/04/08 04:37:05;;;;;;;17.40;9.73;;;6.40;95.70;;;;;;5062042;28;20230;-63
2023/04/08 04:39:31;;;;;;;17.90;10.43;;;6.40;96.00;;;;;;5050801;28;20424;-63
2023/04/08 04:41:58;;;;;;;14.10;8.70;;;6.40;96.30;;;;;;5038025;28;20192;-63
2023/04/08 04:44:26;;;;;;;15.37;9.10;;;6.40;96.50;;;;;;5055302;28;20211;-63
2023/04/08 04:46:53;;;;;;;15.60;9.13;;;6.40;96.30;;;;;;5032845;28;20215;-63
2023/04/08 04:49:20;;;;;;;15.40;9.27;;;6.40;96.60;;;;;;5055592;28;20224;-63
2023/04/08 04:51:49;;;;;;;17.10;9.10;;;6.40;96.90;;;;;;5051084;28;20689;-63
2023/04/08 04:54:15;;;;;;;12.37;8.40;;;6.30;97.20;;;;;;5050014;28;20423;-64
2023/04/08 04:56:42;;;;;;;16.10;8.77;;;6.30;98.10;;;;;;5058279;28;20227;-63
2023/04/08 04:59:09;;;;;;;17.30;8.90;;;6.40;98.10;;;;;;5052119;28;20200;-64
2023/04/08 05:01:36;;;;;;;14.33;8.37;;;6.40;98.00;;;;;;5029702;28;20455;-63
2023/04/08 05:04:03;;;;;;;18.90;9.43;;;6.40;98.30;;;;;;5059939;28;20204;-63
2023/04/08 05:06:29;;;;;;;16.83;8.87;;;6.30;98.40;;;;;;5045681;28;20623;-63
2023/04/08 05:08:58;;;;;;;16.83;9.23;;;6.40;98.60;;;;;;5050624;28;20224;-63
2023/04/08 05:11:24;;;;;;;16.13;9.10;;;6.40;98.90;;;;;;5053963;28;20200;-63
2023/04/08 05:13:51;;;;;;;17.77;9.57;;;6.40;99.00;;;;;;5046273;28;20196;-64
2023/04/08 05:16:18;;;;;;;14.57;8.83;;;6.30;99.80;;;;;;5050508;28;20200;-63
2023/04/08 05:18:45;;;;;;;19.43;9.07;;;6.30;99.90;;;;;;5031154;28;20227;-63
2023/04/08 05:21:12;;;;;;;17.00;9.73;;;6.40;99.90;;;;;;5034276;28;21418;-63
2023/04/08 05:23:38;;;;;;;20.20;9.80;;;6.30;99.90;;;;;;5052032;28;20495;-63
2023/04/08 05:26:08;;;;;;;18.90;9.83;;;6.40;99.90;;;;;;5047176;28;20227;-63
2023/04/08 05:28:36;;;;;;;17.30;9.30;;;6.30;99.90;;;;;;5048213;28;20448;-63
2023/04/08 05:31:02;;;;;;;16.07;9.27;;;6.30;99.90;;;;;;5061319;28;20315;-63
2023/04/08 05:33:29;;;;;;;17.13;10.07;;;6.30;99.90;;;;;;5033089;28;20258;-63
2023/04/08 05:35:56;;;;;;;25.07;9.93;;;6.40;99.90;;;;;;5037228;28;20592;-63
2023/04/08 05:38:23;;;;;;;19.63;10.00;;;6.40;99.90;;;;;;5048500;28;20204;-63
2023/04/08 05:40:50;;;;;;;17.97;10.67;;;6.40;99.90;;;;;;5050042;28;20213;-63
2023/04/08 05:43:18;;;;;;;20.77;11.13;;;6.40;99.90;;;;;;5059793;28;20711;-64
2023/04/08 05:45:45;;;;;;;20.87;10.60;;;6.40;99.90;;;;;;5051445;28;20874;-63
2023/04/08 05:48:12;;;;;;;14.67;10.03;;;6.40;99.90;;;;;;5061365;28;20192;-63
2023/04/08 05:50:39;;;;;;;23.33;10.60;;;6.40;99.90;;;;;;5034826;28;20200;-63
2023/04/08 05:53:05;;;;;;;22.53;10.90;;;6.40;99.90;;;;;;5045057;28;20237;-63
2023/04/08 05:55:32;;;;;;;21.30;10.90;;;6.50;99.90;;;;;;5044039;28;20355;-63
2023/04/08 05:57:59;;;;;;;22.43;11.23;;;6.50;99.90;;;;;;5059982;28;20199;-63
2023/04/08 06:00:27;;;;;;;22.20;10.97;;;6.50;99.90;;;;;;5052143;28;20291;-63
2023/04/08 06:02:54;;;;;;;24.77;11.67;;;6.50;99.90;;;;;;5063017;28;21951;-63
2023/04/08 06:05:21;;;;;;;21.57;12.13;;;6.40;99.90;;;;;;5039476;28;20200;-64
2023/04/08 06:07:48;;;;;;;21.23;10.87;;;6.50;99.90;;;;;;5032244;28;20642;-63
2023/04/08 06:10:14;;;;;;;22.53;10.43;;;6.50;99.90;;;;;;5062790;28;20227;-64
2023/04/08 06:12:41;;;;;;;16.80;10.47;;;6.50;99.90;;;;;;5049992;28;21074;-63
2023/04/08 06:15:09;;;;;;;19.93;11.37;;;6.50;99.90;;;;;;5051358;28;20207;-63
2023/04/08 06:17:38;;;;;;;21.43;11.03;;;6.50;99.90;;;;;;5040204;28;20416;-63
2023/04/08 06:20:06;;;;;;;23.23;11.47;;;6.50;99.90;;;;;;5054195;28;20720;-63
2023/04/08 06:22:32;;;;;;;19.43;11.47;;;6.60;99.90;;;;;;5018355;28;20212;-63
2023/04/08 06:24:59;;;;;;;20.67;12.13;;;6.60;99.90;;;;;;5062313;28;20200;-63
2023/04/08 06:27:26;;;;;;;18.10;11.60;;;6.60;99.90;;;;;;5054230;28;20204;-63
2023/04/08 06:29:54;;;;;;;18.87;11.40;;;6.70;99.90;;;;;;5063991;28;20224;-63
2023/04/08 06:32:21;;;;;;;18.70;11.37;;;6.70;99.90;;;;;;5059793;28;20215;-64
2023/04/08 06:34:49;;;;;;;23.67;11.03;;;6.60;99.90;;;;;;5063419;28;20200;-63
2023/04/08 06:37:16;;;;;;;23.37;11.87;;;6.60;99.80;;;;;;5037611;28;20489;-63
2023/04/08 06:39:43;;;;;;;22.80;11.37;;;6.60;99.20;;;;;;5061199;27;20200;-63
2023/04/08 06:42:10;;;;;;;19.83;11.63;;;6.60;98.70;;;;;;5065753;28;20196;-63
2023/04/08 06:44:36;;;;;;;17.37;11.83;;;6.60;99.00;;;;;;5041680;28;20668;-63
2023/04/08 06:47:03;;;;;;;24.30;11.70;;;6.60;99.10;;;;;;5061412;28;21257;-63
2023/04/08 06:49:30;;;;;;;20.73;11.13;;;6.60;98.80;;;;;;5045428;28;20219;-63
2023/04/08 06:51:58;;;;;;;18.60;10.63;;;6.60;98.40;;;;;;5029073;28;20210;-63
2023/04/08 06:54:25;;;;;;;18.23;10.60;;;6.60;98.60;;;;;;5058963;28;21113;-63
2023/04/08 06:56:52;;;;;;;20.40;11.07;;;6.60;98.60;;;;;;5069624;28;20206;-63
2023/04/08 06:59:19;;;;;;;15.60;9.97;;;6.60;98.60;;;;;;5047606;28;20203;-63
2023/04/08 07:01:45;;;;;;;19.70;11.57;;;6.60;98.30;;;;;;5010897;28;20201;-63
2023/04/08 07:04:12;;;;;;;19.07;11.63;;;6.60;98.20;;;;;;5032579;28;20216;-63
2023/04/08 07:06:39;;;;;;;21.13;12.83;;;6.50;98.10;;;;;;5007917;28;20239;-63
2023/04/08 07:09:07;;;;;;;19.83;11.17;;;6.60;98.40;;;;;;5049064;28;20391;-63
2023/04/08 07:11:35;;;;;;;20.57;11.43;;;6.60;98.30;;;;;;5053663;28;20315;-63
2023/04/08 07:14:01;;;;;;;19.47;10.80;;;6.60;97.90;;;;;;5037435;28;20227;-63
2023/04/08 07:16:28;;;;;;;20.47;12.10;;;6.60;98.50;;;;;;5035950;28;20216;-64
2023/04/08 07:18:55;;;;;;;24.20;12.77;;;6.60;98.50;;;;;;5041858;28;20204;-63
2023/04/08 07:21:22;;;;;;;21.17;12.13;;;6.60;98.50;;;;;;5031615;28;20203;-64
2023/04/08 07:23:49;;;;;;;19.13;11.63;;;6.70;98.80;;;;;;5038277;28;20203;-63
2023/04/08 07:26:17;;;;;;;20.63;10.90;;;6.70;99.30;;;;;;5065940;28;20204;-63
2023/04/08 07:28:44;;;;;;;20.13;11.73;;;6.80;98.70;;;;;;5042794;28;20930;-63
2023/04/08 07:31:12;;;;;;;18.97;10.87;;;6.80;97.60;;;;;;5065143;28;20203;-63
2023/04/08 07:33:39;;;;;;;19.97;11.70;;;6.80;96.30;;;;;;5034881;28;20200;-63
2023/04/08 07:36:06;;;;;;;18.73;11.23;;;6.80;96.20;;;;;;5039164;28;20236;-64
2023/04/08 07:38:33;;;;;;;18.63;11.47;;;6.90;96.50;;;;;;5018777;28;20423;-63
2023/04/08 07:41:00;;;;;;;20.93;11.77;;;6.90;95.60;;;;;;5059465;28;20227;-63
2023/04/08 07:43:28;;;;;;;16.80;10.57;;;6.90;95.00;;;;;;5048522;28;21137;-63
2023/04/08 07:46:01;;;;;;;17.00;11.10;;;6.90;93.30;;;;;;5057288;28;20196;-63
2023/04/08 07:48:28;;;;;;;23.70;11.57;;;6.90;92.80;;;;;;5044348;28;20203;-63
2023/04/08 07:50:55;;;;;;;21.97;12.10;;;6.80;90.20;;;;;;5045131;28;20220;-64
2023/04/08 07:53:22;;;;;;;20.00;11.40;;;6.90;91.70;;;;;;5034073;28;20204;-63
2023/04/08 07:55:49;;;;;;;19.77;11.77;;;6.90;90.70;;;;;;5056199;28;20208;-63
2023/04/08 07:58:16;;;;;;;16.13;9.97;;;6.90;91.10;;;;;;5052687;28;20205;-63
2023/04/08 08:00:44;;;;;;;17.60;11.07;;;7.00;91.60;;;;;;5057554;28;20195;-63
2023/04/08 08:03:10;;;;;;;19.97;11.63;;;7.00;91.40;;;;;;5014281;28;20228;-64
2023/04/08 08:05:37;;;;;;;18.73;11.40;;;7.10;91.10;;;;;;5047500;28;20724;-63
2023/04/08 08:08:06;;;;;;;18.73;11.73;;;7.10;90.10;;;;;;5012967;28;20583;-64
2023/04/08 08:10:33;;;;;;;22.63;12.33;;;7.10;88.50;;;;;;5041614;28;20251;-63
2023/04/08 08:13:00;;;;;;;21.77;12.37;;;7.20;87.60;;;;;;5038151;28;20333;-64
2023/04/08 08:15:26;;;;;;;19.03;11.83;;;7.20;89.00;;;;;;5042482;28;20835;-64
2023/04/08 08:17:54;;;;;;;19.03;11.43;;;7.20;87.90;;;;;;5037170;28;20604;-63
2023/04/08 08:20:21;;;;;;;21.90;11.97;;;7.20;88.10;;;;;;5054471;28;20523;-63
2023/04/08 08:22:48;;;;;;;16.70;11.23;;;7.30;87.70;;;;;;5029477;28;20616;-63
2023/04/08 08:25:15;;;;;;;18.93;11.33;;;7.30;88.70;;;;;;5017840;28;20244;-64
2023/04/08 08:27:42;;;;;;;17.13;10.83;;;7.30;87.60;;;;;;5042468;28;20222;-63
2023/04/08 08:30:09;;;;;;;21.10;12.47;;;7.40;86.00;;;;;;5038387;28;20236;-64
2023/04/08 08:32:36;;;;;;;20.30;11.40;;;7.30;80.80;;;;;;5043801;28;20770;-63
2023/04/08 08:35:05;;;;;;;19.10;10.83;;;7.30;80.80;;;;;;5055025;28;20196;-63
2023/04/08 08:37:32;;;;;;;17.60;10.37;;;7.30;84.20;;;;;;5040154;28;20881;-63
2023/04/08 08:39:58;;;;;;;15.83;9.90;;;7.40;80.70;;;;;;5003638;28;20204;-63
2023/04/08 08:42:26;;;;;;;16.13;9.30;;;7.50;81.90;;;;;;5057096;28;20211;-63
2023/04/08 08:44:54;;;;;;;17.97;10.00;;;7.50;78.40;;;;;;5039111;28;20196;-63
2023/04/08 08:47:21;;;;;;;15.43;10.47;;;7.50;74.30;;;;;;5034310;28;20633;-64
2023/04/08 08:49:48;;;;;;;14.73;10.10;;;7.50;73.20;;;;;;5044685;28;20224;-63
2023/04/08 08:52:17;;;;;;;17.70;11.00;;;7.60;73.30;;;;;;5033548;28;20309;-64
2023/04/08 08:54:45;;;;;;;16.40;10.13;;;7.60;69.90;;;;;;5035755;28;20264;-63
2023/04/08 08:57:18;;;;;;;17.80;10.27;;;7.70;67.80;;;;;;5025336;28;20204;-64
2023/04/08 08:59:46;;;;;;;13.60;9.70;;;7.70;68.40;;;;;;5044245;28;20228;-64
2023/04/08 09:02:25;;;;;;;13.97;9.77;;;7.70;68.10;;;;;;5026500;28;20289;-64
2023/04/08 09:04:57;;;;;;;17.27;10.73;;;7.70;68.60;;;;;;5045584;28;20797;-64
2023/04/08 09:07:26;;;;;;;16.67;10.83;;;7.70;66.00;;;;;;5032903;28;20436;-63
2023/04/08 09:09:54;;;;;;;18.17;11.10;;;7.70;68.60;;;;;;5040166;28;20223;-64
2023/04/08 09:12:22;;;;;;;16.93;10.77;;;7.70;62.40;;;;;;5018148;28;20755;-64
2023/04/08 09:14:49;;;;;;;14.53;10.57;;;7.70;63.30;;;;;;5046682;28;20197;-64
2023/04/08 09:17:16;;;;;;;14.33;10.27;;;7.70;65.20;;;;;;5023202;28;20210;-63
2023/04/08 09:20:08;;;;;;;19.83;10.33;;;7.80;63.40;;;;;;5038437;28;20562;-63
2023/04/08 09:22:55;;;;;;;16.73;10.03;;;7.90;61.70;;;;;;5041258;28;20342;-64
2023/04/08 09:25:24;;;;;;;16.87;10.97;;;8.00;58.20;;;;;;5006323;28;20685;-64
2023/04/08 09:27:51;;;;;;;18.60;11.27;;;7.80;54.60;;;;;;5030111;28;20224;-63
2023/04/08 09:30:19;;;;;;;16.17;10.67;;;7.90;56.90;;;;;;5047655;28;20358;-63
2023/04/08 09:32:49;;;;;;;21.27;11.90;;;8.00;59.30;;;;;;5030380;28;20222;-63
2023/04/08 09:35:17;;;;;;;20.50;11.27;;;7.90;57.60;;;;;;5028362;28;20369;-64
2023/04/08 09:37:46;;;;;;;18.03;10.97;;;7.90;58.50;;;;;;5051489;28;20212;-63
2023/04/08 09:40:14;;;;;;;18.03;11.47;;;7.90;60.20;;;;;;5020961;28;23594;-64
2023/04/08 09:42:44;;;;;;;17.30;11.10;;;8.00;62.70;;;;;;5015074;28;20208;-63
2023/04/08 09:45:12;;;;;;;16.73;10.83;;;7.90;60.10;;;;;;5048261;28;20322;-64
2023/04/08 09:47:48;;;;;;;19.07;10.97;;;8.00;65.60;;;;;;5028353;28;20208;-64
2023/04/08 09:50:16;;;;;;;17.20;10.37;;;8.10;63.80;;;;;;5012520;28;20227;-63
2023/04/08 09:52:49;;;;;;;20.27;11.73;;;8.10;62.10;;;;;;5041611;28;20215;-64
2023/04/08 09:55:21;;;;;;;20.47;11.00;;;8.20;60.00;;;;;;5042073;28;20545;-64
2023/04/08 09:57:52;;;;;;;19.27;11.70;;;8.20;57.30;;;;;;5012827;28;20231;-63
2023/04/08 10:00:21;;;;;;;19.63;12.07;;;8.20;53.80;;;;;;5053850;28;20271;-64
2023/04/08 10:02:55;;;;;;;18.23;11.90;;;8.20;56.00;;;;;;5042211;28;21053;-64
2023/04/08 10:05:24;;;;;;;18.60;11.97;;;8.40;55.70;;;;;;5032515;28;20341;-64
2023/04/08 10:07:52;;;;;;;18.67;11.47;;;8.30;51.60;;;;;;5012140;28;20456;-63
2023/04/08 10:10:20;;;;;;;20.27;11.80;;;8.30;52.50;;;;;;5037382;28;20224;-63
2023/04/08 10:12:48;;;;;;;20.70;11.33;;;8.30;51.80;;;;;;5018341;28;20777;-64
2023/04/08 10:15:28;;;;;;;20.73;12.63;;;8.40;53.20;;;;;;5053231;28;20743;-63
2023/04/08 10:17:56;;;;;;;18.10;11.90;;;8.40;50.50;;;;;;5054184;28;21639;-64
2023/04/08 10:20:43;;;;;;;22.93;13.37;;;8.50;50.80;;;;;;5020352;28;20672;-63
2023/04/08 10:23:13;;;;;;;19.80;12.20;;;8.50;50.30;;;;;;5050713;28;20224;-63
2023/04/08 10:25:41;;;;;;;21.23;12.93;;;8.50;49.60;;;;;;5054996;28;20414;-64
2023/04/08 10:28:26;;;;;;;20.17;12.53;;;8.50;51.00;;;;;;5044164;28;20212;-64
2023/04/08 10:30:54;;;;;;;19.40;12.20;;;8.50;50.30;;;;;;5049196;28;20623;-64
2023/04/08 10:33:24;;;;;;;19.33;12.13;;;8.50;49.40;;;;;;5052300;28;20240;-64
2023/04/08 10:35:54;;;;;;;19.27;11.87;;;8.60;50.30;;;;;;5045726;28;20342;-63
2023/04/08 10:38:23;;;;;;;18.53;11.37;;;8.50;51.00;;;;;;5039272;28;20196;-64
2023/04/08 10:40:50;;;;;;;17.50;11.00;;;8.60;50.80;;;;;;5059146;28;20200;-64
2023/04/08 10:43:17;;;;;;;18.93;11.73;;;8.60;51.00;;;;;;5042082;28;21157;-64
2023/04/08 10:45:44;;;;;;;20.07;12.23;;;8.60;50.50;;;;;;5025550;28;20235;-64
2023/04/08 10:48:16;;;;;;;23.90;11.73;;;8.50;49.50;;;;;;5060544;28;20191;-64
2023/04/08 10:50:43;;;;;;;20.80;11.73;;;8.60;50.10;;;;;;5041055;28;20230;-64
2023/04/08 10:53:11;;;;;;;19.87;12.33;;;8.80;52.40;;;;;;5044635;28;20203;-64
2023/04/08 10:55:39;;;;;;;15.83;10.37;;;8.60;45.90;;;;;;5059108;28;20204;-63
2023/04/08 10:58:07;;;;;;;18.45;11.63;;;8.80;46.80;;;;;;5052214;28;20930;-64
2023/04/08 11:00:36;;;;;;;18.37;10.40;;;8.80;45.70;;;;;;5022393;28;20608;-64
2023/04/08 11:03:04;;;;;;;16.92;11.68;;;9.00;45.70;;;;;;5057245;28;20663;-64
2023/04/08 11:05:31;;;;;;;19.57;11.97;;;8.90;43.40;;;;;;5054045;28;20424;-64
2023/04/08 11:07:58;;;;;;;22.27;12.07;;;9.00;44.10;;;;;;5042483;28;20212;-64
2023/04/08 11:10:25;;;;;;;21.87;12.50;;;8.90;37.00;;;;;;5044267;28;20227;-64
2023/04/08 11:12:54;;;;;;;22.03;12.20;;;8.90;41.00;;;;;;5048604;28;20365;-64
2023/04/08 11:15:21;;;;;;;20.25;11.85;;;9.00;45.30;;;;;;5040960;28;20854;-64
2023/04/08 11:17:49;;;;;;;23.63;13.07;;;8.90;37.20;;;;;;5032569;28;20559;-63
2023/04/08 11:20:16;;;;;;;20.33;13.20;;;8.90;40.70;;;;;;5059708;28;20483;-64
2023/04/08 11:22:44;;;;;;;20.87;12.70;;;9.00;42.40;;;;;;5048012;28;20564;-63
2023/04/08 11:25:11;;;;;;;21.48;13.15;;;8.90;43.40;;;;;;5049220;28;20203;-64
2023/04/08 11:27:39;;;;;;;19.97;12.10;;;8.90;43.20;;;;;;5061557;28;20200;-64
2023/04/08 11:30:08;;;;;;;18.35;11.38;;;9.00;41.80;;;;;;5049161;28;20743;-64
2023/04/08 11:32:36;;;;;;;18.83;11.43;;;9.00;38.30;;;;;;5031328;28;20676;-64
2023/04/08 11:35:06;;;;;;;18.70;10.30;;;9.00;36.30;;;;;;5063920;28;20195;-64
2023/04/08 11:37:38;;;;;;;18.27;11.40;;;9.00;34.90;;;;;;5049573;28;20449;-64
2023/04/08 11:40:08;;;;;;;20.15;11.32;;;9.10;30.00;;;;;;5050556;28;20552;-64
2023/04/08 11:42:35;;;;;;;17.30;11.13;;;9.20;29.30;;;;;;5061370;28;20220;-64
2023/04/08 11:45:02;;;;;;;18.27;11.80;;;9.20;27.80;;;;;;5042949;28;20778;-64
2023/04/08 11:47:34;;;;;;;23.30;11.82;;;9.30;28.60;;;;;;5026908;28;21036;-64
2023/04/08 11:50:01;;;;;;;25.02;11.50;;;9.40;28.50;;;;;;5053854;28;20212;-64
2023/04/08 11:52:41;;;;;;;18.65;11.20;;;9.40;23.00;;;;;;5051530;28;20222;-64
2023/04/08 11:55:09;;;;;;;18.25;10.57;;;9.50;24.10;;;;;;5049780;28;20208;-64
2023/04/08 11:57:36;;;;;;;20.15;12.00;;;9.40;16.40;;;;;;5058039;28;20343;-64
2023/04/08 12:00:05;;;;;;;19.13;11.18;;;9.50;21.30;;;;;;5043473;28;20200;-64
2023/04/08 12:02:34;;;;;;;17.52;10.77;;;9.50;17.40;;;;;;5033311;28;20594;-64
2023/04/08 12:05:01;;;;;;;19.45;11.32;;;9.50;14.80;;;;;;5035435;28;20228;-64
2023/04/08 12:07:28;;;;;;;19.90;11.73;;;9.40;8.20;;;;;;5046034;28;20223;-64
2023/04/08 12:09:55;;;;;;;19.98;12.00;;;9.40;15.50;;;;;;5025016;28;20709;-64
2023/04/08 12:12:21;;;;;;;19.83;11.43;;;9.50;21.00;;;;;;5058127;28;20251;-64
2023/04/08 12:14:48;;;;;;;20.33;11.38;;;9.60;18.60;;;;;;5039092;28;20242;-64
2023/04/08 12:17:15;;;;;;;14.82;10.13;;;9.60;17.70;;;;;;5039322;28;20228;-64
2023/04/08 12:19:43;;;;;;;18.95;11.15;;;9.70;15.30;;;;;;5024505;28;20224;-64
2023/04/08 12:22:10;;;;;;;16.77;10.52;;;9.70;10.70;;;;;;5040280;28;20224;-64
2023/04/08 12:24:37;;;;;;;17.52;11.13;;;9.70;1.00;;;;;;5030478;28;20253;-65
2023/04/08 12:27:04;;;;;;;22.65;12.00;;;9.70;7.00;;;;;;5026913;28;20273;-64
2023/04/08 12:29:31;;;;;;;22.95;12.13;;;9.80;11.00;;;;;;5049656;28;20215;-64
2023/04/08 12:31:58;;;;;;;22.83;11.82;;;9.90;13.10;;;;;;5031651;28;20324;-64
2023/04/08 12:34:25;;;;;;;17.45;10.77;;;9.90;12.20;;;;;;5045824;28;20203;-64
2023/04/08 12:36:54;;;;;;;27.65;15.38;;;10.00;5.10;;;;;;5034837;28;20605;-64
2023/04/08 12:39:21;;;;;;;19.73;11.60;;;9.90;1.00;;;;;;5027508;28;20216;-65
2023/04/08 12:41:48;;;;;;;20.35;11.48;;;9.90;3.00;;;;;;5040440;28;20201;-64
2023/04/08 12:44:15;;;;;;;20.98;11.23;;;9.90;10.90;;;;;;5058209;28;20192;-64